createdAt,value
2023-03-06T00:01:08.667Z,15.90
2023-03-06T00:06:06.037Z,16.10
2023-03-06T00:08:34.030Z,18.88
2023-03-06T00:11:01.862Z,19.60
2023-03-06T00:13:30.673Z,16.75
2023-03-06T00:16:00.488Z,19.08
2023-03-06T00:18:28.536Z,19.13
2023-03-06T00:20:56.355Z,16.73
2023-03-06T00:23:25.746Z,17.88
2023-03-06T00:25:53.625Z,21.42
2023-03-06T00:28:21.415Z,16.15
2023-03-06T00:30:49.240Z,20.27
2023-03-06T00:33:17.399Z,19.35
2023-03-06T00:35:45.246Z,19.48
2023-03-06T00:38:13.668Z,23.80
2023-03-06T00:40:43.032Z,18.95
2023-03-06T00:43:10.926Z,19.37
2023-03-06T00:45:38.900Z,17.35
2023-03-06T00:48:09.514Z,17.23
2023-03-06T00:50:37.585Z,19.20
2023-03-06T00:53:05.476Z,16.45
2023-03-06T00:55:33.636Z,16.17
2023-03-06T00:58:03.008Z,19.17
2023-03-06T01:00:30.879Z,17.70
2023-03-06T01:02:58.866Z,20.00
2023-03-06T01:05:26.749Z,18.95
2023-03-06T01:07:54.771Z,16.95
2023-03-06T01:10:22.872Z,21.00
2023-03-06T01:12:50.659Z,23.38
2023-03-06T01:15:21.724Z,19.67
2023-03-06T01:20:21.381Z,22.35
2023-03-06T01:22:49.256Z,23.10
2023-03-06T01:25:17.028Z,23.65
2023-03-06T01:27:44.788Z,24.83
2023-03-06T01:30:13.926Z,23.55
2023-03-06T01:32:43.444Z,24.02
2023-03-06T01:35:12.212Z,27.75
2023-03-06T01:37:40.596Z,25.15
2023-03-06T01:40:12.105Z,29.55
2023-03-06T01:42:40.033Z,27.00
2023-03-06T01:45:46.599Z,25.25
2023-03-06T01:48:16.132Z,25.13
2023-03-06T01:50:44.343Z,27.00
2023-03-06T01:53:13.996Z,24.88
2023-03-06T01:55:42.126Z,26.98
2023-03-06T01:58:13.903Z,25.95
2023-03-06T02:00:41.762Z,28.13
2023-03-06T02:03:13.449Z,32.30
2023-03-06T02:05:44.718Z,31.20
2023-03-06T02:08:15.904Z,32.08
2023-03-06T02:10:44.916Z,34.47
2023-03-06T02:13:12.650Z,33.85
2023-03-06T02:15:40.496Z,31.13
2023-03-06T02:18:08.501Z,31.73
2023-03-06T02:20:40.962Z,33.75
2023-03-06T02:23:15.884Z,33.92
2023-03-06T02:25:48.038Z,34.65
2023-03-06T02:28:18.530Z,31.25
2023-03-06T02:30:48.783Z,33.25
2023-03-06T02:33:18.276Z,35.67
2023-03-06T02:35:51.266Z,37.35
2023-03-06T02:38:22.034Z,34.63
2023-03-06T02:40:52.869Z,33.22
2023-03-06T02:43:25.455Z,34.67
2023-03-06T02:45:53.458Z,34.20
2023-03-06T02:48:22.083Z,33.90
2023-03-06T02:50:50.313Z,35.08
2023-03-06T02:53:20.338Z,32.40
2023-03-06T02:55:48.735Z,34.17
2023-03-06T02:58:20.580Z,36.50
2023-03-06T03:00:49.789Z,37.88
2023-03-06T03:03:18.537Z,33.53
2023-03-06T03:05:47.048Z,35.88
2023-03-06T03:08:24.706Z,38.30
2023-03-06T03:10:57.471Z,37.95
2023-03-06T03:13:28.525Z,39.35
2023-03-06T03:16:01.100Z,29.27
2023-03-06T03:18:29.382Z,39.92
2023-03-06T03:20:57.395Z,35.95
2023-03-06T03:23:25.676Z,38.20
2023-03-06T03:25:53.994Z,35.83
2023-03-06T03:28:22.303Z,42.17
2023-03-06T03:30:51.817Z,37.97
2023-03-06T03:33:19.975Z,38.80
2023-03-06T03:35:47.858Z,37.05
2023-03-06T03:38:17.213Z,39.50
2023-03-06T03:40:44.984Z,40.05
2023-03-06T03:43:13.154Z,36.17
2023-03-06T03:45:41.315Z,30.63
2023-03-06T03:48:10.506Z,32.58
2023-03-06T03:50:40.275Z,32.92
2023-03-06T03:53:08.419Z,32.72
2023-03-06T03:55:36.621Z,32.05
2023-03-06T03:58:05.578Z,31.42
2023-03-06T04:00:33.774Z,29.17
2023-03-06T04:03:11.817Z,28.58
2023-03-06T04:05:43.401Z,29.95
2023-03-06T04:08:14.204Z,26.70
2023-03-06T04:10:44.958Z,28.77
2023-03-06T04:13:15.441Z,29.45
2023-03-06T04:15:46.494Z,29.55
2023-03-06T04:18:16.570Z,33.92
2023-03-06T04:20:45.770Z,34.05
2023-03-06T04:23:14.425Z,31.05
2023-03-06T04:25:42.920Z,29.52
2023-03-06T04:28:13.358Z,30.52
2023-03-06T04:30:41.378Z,28.90
2023-03-06T04:33:10.398Z,27.85
2023-03-06T04:35:40.167Z,30.10
2023-03-06T04:38:14.186Z,29.80
2023-03-06T04:40:44.810Z,31.25
2023-03-06T04:43:13.063Z,28.02
2023-03-06T04:45:40.876Z,26.00
2023-03-06T04:48:09.092Z,28.63
2023-03-06T04:50:38.117Z,29.45
2023-03-06T04:53:08.605Z,29.40
2023-03-06T04:55:36.492Z,27.30
2023-03-06T04:58:04.477Z,28.10
2023-03-06T05:00:32.548Z,23.70
2023-03-06T05:03:01.736Z,25.88
2023-03-06T05:05:29.843Z,24.48
2023-03-06T05:07:57.992Z,25.58
2023-03-06T05:10:27.416Z,24.65
2023-03-06T05:12:55.187Z,28.13
2023-03-06T05:15:23.194Z,26.98
2023-03-06T05:17:51.162Z,25.63
2023-03-06T05:20:19.282Z,26.25
2023-03-06T05:22:47.361Z,26.38
2023-03-06T05:25:15.358Z,26.38
2023-03-06T05:27:44.569Z,25.20
2023-03-06T05:30:14.912Z,25.67
2023-03-06T05:32:42.921Z,23.90
2023-03-06T05:35:18.068Z,23.15
2023-03-06T05:37:45.894Z,21.80
2023-03-06T05:40:14.624Z,22.95
2023-03-06T05:42:43.959Z,23.48
2023-03-06T05:45:12.914Z,25.33
2023-03-06T05:47:40.809Z,26.27
2023-03-06T05:50:10.451Z,27.50
2023-03-06T05:52:39.526Z,25.50
2023-03-06T05:55:09.236Z,24.00
2023-03-06T05:57:36.996Z,24.83
2023-03-06T06:00:07.997Z,28.30
2023-03-06T06:02:40.492Z,24.30
2023-03-06T06:05:11.322Z,22.60
2023-03-06T06:07:40.900Z,22.85
2023-03-06T06:10:10.232Z,27.98
2023-03-06T06:12:38.281Z,25.85
2023-03-06T06:15:08.700Z,23.85
2023-03-06T06:17:36.572Z,24.77
2023-03-06T06:20:05.183Z,22.90
2023-03-06T06:22:32.939Z,22.25
2023-03-06T06:25:00.708Z,21.60
2023-03-06T06:27:28.539Z,22.67
2023-03-06T06:29:56.387Z,19.15
2023-03-06T06:32:25.702Z,21.13
2023-03-06T06:34:53.563Z,22.00
2023-03-06T06:37:21.328Z,20.50
2023-03-06T06:39:49.250Z,18.10
2023-03-06T06:42:38.890Z,18.63
2023-03-06T06:45:06.157Z,18.35
2023-03-06T06:47:38.577Z,18.73
2023-03-06T06:50:07.725Z,18.48
2023-03-06T06:52:35.642Z,19.83
2023-03-06T06:55:03.704Z,18.50
2023-03-06T06:57:31.940Z,17.35
2023-03-06T06:59:59.875Z,18.73
2023-03-06T07:02:27.771Z,20.77
2023-03-06T07:05:04.146Z,18.25
2023-03-06T07:07:35.429Z,18.05
2023-03-06T07:12:32.909Z,18.13
2023-03-06T07:15:00.715Z,17.73
2023-03-06T07:17:28.558Z,17.80
2023-03-06T07:19:57.874Z,14.48
2023-03-06T07:22:25.683Z,14.33
2023-03-06T07:24:53.480Z,13.88
2023-03-06T07:27:23.792Z,15.95
2023-03-06T07:29:51.766Z,15.15
2023-03-06T07:32:20.705Z,15.23
2023-03-06T07:34:48.920Z,12.90
2023-03-06T07:37:18.305Z,13.98
2023-03-06T07:39:46.198Z,15.48
2023-03-06T07:42:15.153Z,13.82
2023-03-06T07:44:53.966Z,14.82
2023-03-06T07:47:21.796Z,15.13
2023-03-06T07:49:49.529Z,13.05
2023-03-06T07:52:18.889Z,12.68
2023-03-06T07:54:46.708Z,13.33
2023-03-06T07:57:14.908Z,12.75
2023-03-06T07:59:42.943Z,13.10
2023-03-06T08:02:11.899Z,13.45
2023-03-06T08:04:40.225Z,13.07
2023-03-06T08:07:08.071Z,15.45
2023-03-06T08:09:37.552Z,12.50
2023-03-06T08:12:05.510Z,15.52
2023-03-06T08:14:35.583Z,15.10
2023-03-06T08:17:03.710Z,13.60
2023-03-06T08:19:31.538Z,14.73
2023-03-06T08:21:59.536Z,13.40
2023-03-06T08:24:27.439Z,17.15
2023-03-06T08:26:56.786Z,18.23
2023-03-06T08:29:24.683Z,16.73
2023-03-06T08:31:52.568Z,16.00
2023-03-06T08:34:24.189Z,17.33
2023-03-06T08:36:52.589Z,15.93
2023-03-06T08:39:21.190Z,16.42
2023-03-06T08:41:48.957Z,16.92
2023-03-06T08:44:18.227Z,17.98
2023-03-06T08:46:46.082Z,17.02
2023-03-06T08:49:14.425Z,19.23
2023-03-06T08:51:42.457Z,18.33
2023-03-06T08:54:13.211Z,20.13
2023-03-06T08:56:41.208Z,20.67
2023-03-06T08:59:10.488Z,20.40
2023-03-06T09:01:40.904Z,19.92
2023-03-06T09:04:11.752Z,20.63
2023-03-06T09:06:43.375Z,20.88
2023-03-06T09:09:12.042Z,19.33
2023-03-06T09:11:40.451Z,19.35
2023-03-06T09:14:08.571Z,20.60
2023-03-06T09:16:36.682Z,18.52
2023-03-06T09:19:06.123Z,21.20
2023-03-06T09:21:34.028Z,18.80
2023-03-06T09:24:01.852Z,19.05
2023-03-06T09:26:43.478Z,19.50
2023-03-06T09:29:13.418Z,17.83
2023-03-06T09:31:41.576Z,17.33
2023-03-06T09:34:10.720Z,17.73
2023-03-06T09:36:54.907Z,14.65
2023-03-06T09:39:24.918Z,15.27
2023-03-06T09:41:53.654Z,13.68
2023-03-06T09:44:23.636Z,14.93
2023-03-06T09:47:14.538Z,13.02
2023-03-06T09:50:01.729Z,13.80
2023-03-06T09:52:38.526Z,12.80
2023-03-06T09:55:13.402Z,12.75
2023-03-06T09:57:46.234Z,14.10
2023-03-06T10:00:18.051Z,11.43
2023-03-06T10:02:49.090Z,12.05
2023-03-06T10:05:22.693Z,12.52
2023-03-06T10:07:55.103Z,11.60
2023-03-06T10:10:26.115Z,11.13
2023-03-06T10:13:01.480Z,11.05
2023-03-06T10:15:33.909Z,11.90
2023-03-06T10:18:03.129Z,14.20
2023-03-06T10:20:37.995Z,11.70
2023-03-06T10:23:30.051Z,11.32
2023-03-06T10:26:01.642Z,13.52
2023-03-06T10:28:32.767Z,12.95
2023-03-06T10:31:06.961Z,15.20
2023-03-06T10:33:50.836Z,14.95
2023-03-06T10:36:22.511Z,13.45
2023-03-06T10:38:50.642Z,13.05
2023-03-06T10:41:24.933Z,13.40
2023-03-06T10:44:35.488Z,12.60
2023-03-06T10:47:27.478Z,11.00
2023-03-06T10:50:01.005Z,11.82
2023-03-06T10:52:32.876Z,12.35
2023-03-06T10:55:23.789Z,11.52
2023-03-06T10:57:51.941Z,12.35
2023-03-06T11:00:36.004Z,12.23
2023-03-06T11:03:18.041Z,11.27
2023-03-06T11:05:59.237Z,11.70
2023-03-06T11:08:29.257Z,11.40
2023-03-06T11:11:02.315Z,11.07
2023-03-06T11:13:32.238Z,11.50
2023-03-06T11:16:03.962Z,11.75
2023-03-06T11:18:41.165Z,11.98
2023-03-06T11:21:30.387Z,13.02
2023-03-06T11:24:05.344Z,13.63
2023-03-06T11:26:39.284Z,11.48
2023-03-06T11:29:16.955Z,10.50
2023-03-06T11:31:51.548Z,12.35
2023-03-06T11:34:25.568Z,12.18
2023-03-06T11:36:57.980Z,11.68
2023-03-06T11:39:36.087Z,12.40
2023-03-06T11:42:10.950Z,11.82
2023-03-06T11:44:52.921Z,12.90
2023-03-06T11:47:24.597Z,10.05
2023-03-06T11:50:01.885Z,10.05
2023-03-06T11:52:43.067Z,8.93
2023-03-06T11:55:18.313Z,9.88
2023-03-06T11:57:52.334Z,8.60
2023-03-06T12:00:30.567Z,10.30
2023-03-06T12:03:30.283Z,9.35
2023-03-06T12:06:04.126Z,7.63
2023-03-06T12:08:51.902Z,6.43
2023-03-06T12:11:25.455Z,6.25
2023-03-06T12:14:08.063Z,6.55
2023-03-06T12:16:58.592Z,5.63
2023-03-06T12:19:39.038Z,5.40
2023-03-06T12:22:22.493Z,4.47
2023-03-06T12:25:07.965Z,5.47
2023-03-06T12:27:46.075Z,5.30
2023-03-06T12:30:30.092Z,5.20
2023-03-06T12:33:06.304Z,6.25
2023-03-06T12:35:51.656Z,5.78
2023-03-06T12:38:49.995Z,5.40
2023-03-06T12:41:28.229Z,4.03
2023-03-06T12:44:18.612Z,5.25
2023-03-06T12:46:50.577Z,6.75
2023-03-06T12:49:31.957Z,4.80
2023-03-06T12:52:02.256Z,5.03
2023-03-06T12:54:34.741Z,3.97
2023-03-06T12:57:02.835Z,5.93
2023-03-06T12:59:42.972Z,5.78
2023-03-06T13:05:30.913Z,6.45
2023-03-06T13:08:14.229Z,7.35
2023-03-06T13:10:44.884Z,6.95
2023-03-06T13:13:32.819Z,6.03
2023-03-06T13:16:14.786Z,7.13
2023-03-06T13:18:55.496Z,7.32
2023-03-06T13:21:46.445Z,6.97
2023-03-06T13:24:21.157Z,7.95
2023-03-06T13:27:01.322Z,7.95
2023-03-06T13:30:06.621Z,9.43
2023-03-06T13:32:37.211Z,8.52
2023-03-06T13:35:52.881Z,8.00
2023-03-06T13:38:59.774Z,9.10
2023-03-06T13:41:37.650Z,7.03
2023-03-06T13:44:49.575Z,6.70
2023-03-06T13:48:01.374Z,7.82
2023-03-06T13:50:37.994Z,6.18
2023-03-06T13:53:30.924Z,6.05
2023-03-06T13:56:11.084Z,5.82
2023-03-06T13:58:53.217Z,5.88
2023-03-06T14:01:37.002Z,5.80
2023-03-06T14:04:34.607Z,6.72
2023-03-06T14:07:19.150Z,5.45
2023-03-06T14:09:48.826Z,4.15
2023-03-06T14:12:23.628Z,3.05
2023-03-06T14:14:56.988Z,12.05
2023-03-06T14:17:29.737Z,8.85
2023-03-06T14:20:01.861Z,2.67
2023-03-06T14:22:29.965Z,2.35
2023-03-06T14:25:01.959Z,2.65
2023-03-06T14:27:42.899Z,2.97
2023-03-06T14:30:15.972Z,2.58
2023-03-06T14:32:44.638Z,3.05
2023-03-06T14:35:29.552Z,2.30
2023-03-06T14:38:04.939Z,2.80
2023-03-06T14:40:35.995Z,2.88
2023-03-06T14:43:24.607Z,2.67
2023-03-06T14:45:57.918Z,2.63
2023-03-06T14:48:28.045Z,3.00
2023-03-06T14:50:58.634Z,2.08
2023-03-06T14:53:29.226Z,2.90
2023-03-06T14:56:00.297Z,2.20
2023-03-06T14:58:32.649Z,2.70
2023-03-06T15:01:06.470Z,2.90
2023-03-06T15:03:45.226Z,4.18
2023-03-06T15:06:18.262Z,2.50
2023-03-06T15:08:48.663Z,1.92
2023-03-06T15:11:16.689Z,4.47
2023-03-06T15:14:00.784Z,1.85
2023-03-06T15:16:30.370Z,3.30
2023-03-06T15:19:00.191Z,3.05
2023-03-06T15:21:38.910Z,2.22
2023-03-06T15:24:34.644Z,1.77
2023-03-06T15:27:04.548Z,2.03
2023-03-06T15:29:33.102Z,2.30
2023-03-06T15:32:32.329Z,2.08
2023-03-06T15:35:32.761Z,1.90
2023-03-06T15:38:03.649Z,2.40
2023-03-06T15:40:32.903Z,2.88
2023-03-06T15:43:01.039Z,2.25
2023-03-06T15:45:31.894Z,3.05
2023-03-06T15:47:59.732Z,2.63
2023-03-06T15:50:30.259Z,3.03
2023-03-06T15:52:58.384Z,3.00
2023-03-06T15:55:27.850Z,4.97
2023-03-06T15:57:59.547Z,2.63
2023-03-06T16:00:29.489Z,3.38
2023-03-06T16:02:58.325Z,3.35
2023-03-06T16:05:29.429Z,5.03
2023-03-06T16:07:58.974Z,4.40
2023-03-06T16:10:30.793Z,5.55
2023-03-06T16:13:02.980Z,4.47
2023-03-06T16:15:33.118Z,5.82
2023-03-06T16:18:01.284Z,5.07
2023-03-06T16:20:30.380Z,4.07
2023-03-06T16:22:58.287Z,4.80
2023-03-06T16:25:29.407Z,4.57
2023-03-06T16:27:59.486Z,7.68
2023-03-06T16:30:29.387Z,7.60
2023-03-06T16:32:57.876Z,8.25
2023-03-06T16:35:26.735Z,15.38
2023-03-06T16:37:54.979Z,16.38
2023-03-06T16:40:25.333Z,58.83
2023-03-06T16:42:55.271Z,19.00
2023-03-06T16:45:24.996Z,13.15
2023-03-06T16:47:53.133Z,26.17
2023-03-06T16:50:25.447Z,26.60
2023-03-06T16:52:54.819Z,9.98
2023-03-06T16:55:23.268Z,10.40
2023-03-06T16:57:51.503Z,8.73
2023-03-06T17:00:22.525Z,6.97
2023-03-06T17:02:50.903Z,8.63
2023-03-06T17:05:19.893Z,6.38
2023-03-06T17:07:47.910Z,4.35
2023-03-06T17:10:17.754Z,5.50
2023-03-06T17:12:45.855Z,4.68
2023-03-06T17:15:13.741Z,6.80
2023-03-06T17:17:43.033Z,4.32
2023-03-06T17:20:13.724Z,4.82
2023-03-06T17:22:42.027Z,5.28
2023-03-06T17:25:10.730Z,5.20
2023-03-06T17:27:39.112Z,5.38
2023-03-06T17:30:08.377Z,5.88
2023-03-06T17:32:36.350Z,6.32
2023-03-06T17:35:06.596Z,8.38
2023-03-06T17:40:02.267Z,6.72
2023-03-06T17:42:30.087Z,6.20
2023-03-06T17:44:57.933Z,5.90
2023-03-06T17:47:25.808Z,5.63
2023-03-06T17:49:53.987Z,6.05
2023-03-06T17:52:23.313Z,5.60
2023-03-06T17:54:51.304Z,6.10
2023-03-06T17:57:19.084Z,6.32
2023-03-06T17:59:48.627Z,5.90
2023-03-06T18:02:16.609Z,5.20
2023-03-06T18:04:44.593Z,6.88
2023-03-06T18:07:12.412Z,6.57
2023-03-06T18:09:43.865Z,6.90
2023-03-06T18:12:12.374Z,6.57
2023-03-06T18:14:40.232Z,6.68
2023-03-06T18:17:08.119Z,7.25
2023-03-06T18:19:36.219Z,7.22
2023-03-06T18:22:03.952Z,10.07
2023-03-06T18:24:31.744Z,11.00
2023-03-06T18:27:01.197Z,12.65
2023-03-06T18:29:29.084Z,11.55
2023-03-06T18:31:59.128Z,11.00
2023-03-06T18:34:27.308Z,10.68
2023-03-06T18:36:55.186Z,10.80
2023-03-06T18:39:23.106Z,9.68
2023-03-06T18:41:51.740Z,10.63
2023-03-06T18:44:21.164Z,10.63
2023-03-06T18:46:49.102Z,10.50
2023-03-06T18:49:17.188Z,10.05
2023-03-06T18:51:45.011Z,10.85
2023-03-06T18:54:12.984Z,11.18
2023-03-06T18:56:44.094Z,13.60
2023-03-06T18:59:16.423Z,12.23
2023-03-06T19:01:47.557Z,12.55
2023-03-06T19:04:15.500Z,11.63
2023-03-06T19:06:43.489Z,13.25
2023-03-06T19:09:11.697Z,11.73
2023-03-06T19:11:39.544Z,11.57
2023-03-06T19:14:07.907Z,16.15
2023-03-06T19:16:35.964Z,13.57
2023-03-06T19:19:05.301Z,17.23
2023-03-06T19:21:33.459Z,18.40
2023-03-06T19:24:02.960Z,18.77
2023-03-06T19:26:31.377Z,17.05
2023-03-06T19:28:59.668Z,15.95
2023-03-06T19:31:29.396Z,12.27
2023-03-06T19:33:58.075Z,13.88
2023-03-06T19:36:33.455Z,13.23
2023-03-06T19:39:04.693Z,15.18
2023-03-06T19:41:32.776Z,13.13
2023-03-06T19:44:03.356Z,12.10
2023-03-06T19:46:31.706Z,16.95
2023-03-06T19:49:01.035Z,19.55
2023-03-06T19:51:30.932Z,35.23
2023-03-06T19:53:58.785Z,20.88
2023-03-06T19:56:29.057Z,23.65
2023-03-06T19:58:57.552Z,22.00
2023-03-06T20:01:28.006Z,21.75
2023-03-06T20:03:58.666Z,21.20
2023-03-06T20:06:28.933Z,23.83
2023-03-06T20:08:58.194Z,20.42
2023-03-06T20:11:29.801Z,21.20
2023-03-06T20:13:59.642Z,20.35
2023-03-06T20:16:28.918Z,22.15
2023-03-06T20:18:58.930Z,22.50
2023-03-06T20:21:27.415Z,22.77
2023-03-06T20:23:56.984Z,21.02
2023-03-06T20:26:28.260Z,21.48
2023-03-06T20:28:56.864Z,17.20
2023-03-06T20:31:26.991Z,15.27
2023-03-06T20:36:27.672Z,18.52
2023-03-06T20:38:55.630Z,24.98
2023-03-06T20:41:27.569Z,29.90
2023-03-06T20:43:55.789Z,29.73
2023-03-06T20:46:24.748Z,26.60
2023-03-06T20:48:54.109Z,26.30
2023-03-06T20:51:23.985Z,26.25
2023-03-06T20:53:54.242Z,24.27
2023-03-06T20:58:52.384Z,25.52
2023-03-06T21:01:21.212Z,27.23
2023-03-06T21:03:49.674Z,26.95
2023-03-06T21:06:18.183Z,25.27
2023-03-06T21:08:46.232Z,26.35
2023-03-06T21:11:14.421Z,27.17
2023-03-06T21:13:42.423Z,25.55
2023-03-06T21:16:14.321Z,27.00
2023-03-06T21:18:42.528Z,28.35
2023-03-06T21:21:12.561Z,26.80
2023-03-06T21:23:40.713Z,27.25
2023-03-06T21:26:08.650Z,25.73
2023-03-06T21:28:36.700Z,25.10
2023-03-06T21:31:08.448Z,35.13
2023-03-06T21:33:38.487Z,29.17
2023-03-06T21:36:07.693Z,28.63
2023-03-06T21:38:36.680Z,28.40
2023-03-06T21:41:08.994Z,26.58
2023-03-06T21:43:36.884Z,31.60
2023-03-06T21:46:04.877Z,28.90
2023-03-06T21:48:33.170Z,33.40
2023-03-06T21:51:10.868Z,28.02
2023-03-06T21:53:40.965Z,29.92
2023-03-06T21:56:09.793Z,27.27
2023-03-06T21:58:38.383Z,29.13
2023-03-06T22:01:10.977Z,28.02
2023-03-06T22:03:39.529Z,28.00
2023-03-06T22:06:13.935Z,29.58
2023-03-06T22:08:42.578Z,32.85
2023-03-06T22:11:12.501Z,29.40
2023-03-06T22:13:41.194Z,31.00
2023-03-06T22:16:09.756Z,30.98
2023-03-06T22:18:38.173Z,29.90
2023-03-06T22:21:09.751Z,28.45
2023-03-06T22:23:40.286Z,28.98
2023-03-06T22:26:11.302Z,31.13
2023-03-06T22:28:39.482Z,31.38
2023-03-06T22:31:08.953Z,32.58
2023-03-06T22:33:37.025Z,30.35
2023-03-06T22:36:07.679Z,29.63
2023-03-06T22:38:36.791Z,29.75
2023-03-06T22:41:06.925Z,29.33
2023-03-06T22:46:03.961Z,30.45
2023-03-06T22:48:32.392Z,31.90
2023-03-06T22:51:04.499Z,33.88
2023-03-06T22:53:32.875Z,31.30
2023-03-06T22:56:01.270Z,30.50
2023-03-06T22:58:34.410Z,36.58
2023-03-06T23:01:08.488Z,36.97
2023-03-06T23:03:37.582Z,34.20
2023-03-06T23:06:10.604Z,36.58
2023-03-06T23:08:39.324Z,34.65
2023-03-06T23:11:09.943Z,36.92
2023-03-06T23:13:58.714Z,37.83
2023-03-06T23:16:45.239Z,35.63
2023-03-06T23:19:31.927Z,36.63
2023-03-06T23:22:18.397Z,36.83
2023-03-06T23:25:05.971Z,36.17
2023-03-06T23:27:33.793Z,39.45
2023-03-06T23:30:03.600Z,37.88
2023-03-06T23:32:32.897Z,34.80
2023-03-06T23:35:01.572Z,29.50
2023-03-06T23:37:29.602Z,40.53
2023-03-06T23:39:57.707Z,39.85
2023-03-06T23:42:25.563Z,35.35
2023-03-06T23:44:53.337Z,35.72
2023-03-06T23:47:22.610Z,37.03
2023-03-06T23:49:50.507Z,36.47
2023-03-06T23:52:18.691Z,33.30
2023-03-06T23:54:49.670Z,35.75
2023-03-06T23:57:17.578Z,82.68
2023-03-06T23:59:45.545Z,42.78
